Hopeton, Oklahoma
Current Conditions -  °F | °C
As of 10:10 PM on Wednesday 22 Oct 2014 (Local Time) from KAVK Reporting Station
Scattered Clouds Scattered Clouds  
Wind Chill: 61°   Ceiling: Unl
Heat Index: 61°   Visibility: 10mi
Dew Point: 59°   Wind: 12mph
Humidity: 94%   Direction: 190°S
Pressure: 30.1"   Gusts: NA
Location:  36.69°N, 98.67°W
Report Text: KAVK 230310Z AUTO 19010KT 10SM FEW085 SCT120 16/15 A3010 RMK AO2
Loading
Personal Weather Stations






























Interactive Weather Map
Tropical Storm Tracking
New forecast layout! Learn more

10-Day Weather Forecast

Advertisements
Track Severe Weather on mobile